Time;durP1;ratioP1;P1;durP2;ratioP2;P2;SDS_P1;SDS_P2;PMS_P1;PMS_P2;Temp;Humidity;BMP_temperature;BMP_pressure;BME280_temperature;BME280_humidity;BME280_pressure;Samples;Min_cycle;Max_cycle;Signal;HPM_P1;HPM_P2
2023/05/11 00:00:02;;;;;;;0.00;0.00;;;12.60;99.90;;;;;;5038157;28;20191;-84
2023/05/11 00:02:28;;;;;;;0.10;0.10;;;12.60;99.90;;;;;;5031429;28;20182;-84
2023/05/11 00:04:54;;;;;;;0.10;0.10;;;12.50;99.90;;;;;;5038747;28;20191;-84
2023/05/11 00:07:19;;;;;;;0.10;0.10;;;12.60;99.90;;;;;;5042244;28;20643;-84
2023/05/11 00:09:45;;;;;;;0.03;0.03;;;12.60;99.90;;;;;;5049014;28;20452;-84
2023/05/11 00:12:11;;;;;;;0.00;0.00;;;12.60;99.90;;;;;;5033133;28;20242;-85
2023/05/11 00:14:37;;;;;;;0.00;0.00;;;12.40;99.90;;;;;;5042635;28;20178;-84
2023/05/11 00:17:02;;;;;;;0.03;0.03;;;12.20;99.90;;;;;;5032165;28;20441;-84
2023/05/11 00:19:30;;;;;;;0.00;0.00;;;12.30;99.90;;;;;;5040576;28;20214;-84
2023/05/11 00:21:56;;;;;;;0.00;0.00;;;12.20;99.90;;;;;;5036901;28;20172;-85
2023/05/11 00:24:22;;;;;;;0.10;0.10;;;12.30;99.90;;;;;;5029184;28;20454;-85
2023/05/11 00:26:47;;;;;;;0.10;0.10;;;12.20;99.90;;;;;;5033862;28;20942;-85
2023/05/11 00:29:13;;;;;;;0.10;0.10;;;12.20;99.90;;;;;;5032539;28;20648;-84
2023/05/11 00:31:38;;;;;;;0.10;0.10;;;12.20;99.90;;;;;;5034365;28;20218;-85
2023/05/11 00:34:04;;;;;;;0.00;0.00;;;11.80;99.90;;;;;;5029743;28;20257;-85
2023/05/11 00:36:29;;;;;;;0.10;0.10;;;12.20;99.90;;;;;;5040704;28;20270;-84
2023/05/11 00:38:55;;;;;;;0.00;0.00;;;12.20;99.90;;;;;;5046717;28;20218;-84
2023/05/11 00:41:21;;;;;;;0.10;0.10;;;12.10;99.90;;;;;;5036995;28;20198;-84
2023/05/11 00:43:46;;;;;;;0.00;0.00;;;12.10;99.90;;;;;;5046876;28;20728;-84
2023/05/11 00:46:12;;;;;;;0.07;0.07;;;12.20;99.90;;;;;;5043426;28;20238;-84
2023/05/11 00:48:37;;;;;;;0.00;0.00;;;12.40;99.90;;;;;;5031714;28;20635;-84
2023/05/11 00:51:04;;;;;;;0.03;0.03;;;12.30;99.90;;;;;;5039562;28;20183;-83
2023/05/11 00:53:30;;;;;;;0.07;0.07;;;12.40;99.90;;;;;;5049719;28;20639;-85
2023/05/11 00:55:56;;;;;;;0.10;0.10;;;12.30;99.90;;;;;;5045273;28;20495;-85
2023/05/11 00:58:22;;;;;;;0.10;0.10;;;12.20;99.90;;;;;;5041774;28;20232;-85
2023/05/11 01:00:48;;;;;;;0.10;0.10;;;12.20;99.90;;;;;;5042433;28;20457;-85
2023/05/11 01:03:14;;;;;;;0.10;0.10;;;12.30;99.90;;;;;;5050431;28;20425;-84
2023/05/11 01:06:00;;;;;;;0.07;0.07;;;12.20;99.90;;;;;;5048752;28;20643;-84
2023/05/11 01:08:39;;;;;;;0.10;0.10;;;12.20;99.90;;;;;;5045787;28;20448;-84
2023/05/11 01:11:24;;;;;;;0.10;0.10;;;12.40;99.90;;;;;;5045052;28;20906;-84
2023/05/11 01:13:54;;;;;;;0.07;0.07;;;12.30;99.90;;;;;;5048675;28;20441;-84
2023/05/11 01:16:23;;;;;;;0.00;0.00;;;12.40;99.90;;;;;;5042093;28;20438;-84
2023/05/11 01:19:00;;;;;;;0.10;0.10;;;12.30;99.90;;;;;;5034459;28;20477;-84
2023/05/11 01:21:32;;;;;;;0.07;0.07;;;12.40;99.90;;;;;;5048706;28;20441;-85
2023/05/11 01:24:16;;;;;;;0.07;0.07;;;12.40;99.90;;;;;;5034639;28;20490;-84
2023/05/11 01:27:07;;;;;;;0.10;0.10;;;12.30;99.90;;;;;;5050983;28;20533;-84
2023/05/11 01:30:04;;;;;;;0.10;0.10;;;12.30;99.90;;;;;;5030968;28;20502;-84
2023/05/11 01:32:32;;;;;;;0.03;0.03;;;12.40;99.90;;;;;;5039527;28;20947;-85
2023/05/11 01:35:05;;;;;;;0.07;0.07;;;12.30;99.90;;;;;;5042707;28;20461;-84
2023/05/11 01:37:32;;;;;;;0.10;0.10;;;12.40;99.90;;;;;;5051452;28;20437;-84
2023/05/11 01:40:01;;;;;;;0.10;0.10;;;12.40;99.90;;;;;;5048472;28;20924;-84
2023/05/11 01:42:35;;;;;;;0.10;0.10;;;12.40;99.90;;;;;;5053890;28;20469;-83
2023/05/11 01:45:02;;;;;;;0.00;0.00;;;12.30;99.90;;;;;;5046063;28;20445;-83
2023/05/11 01:47:30;;;;;;;0.03;0.03;;;12.30;99.90;;;;;;5052474;28;20925;-83
2023/05/11 01:49:58;;;;;;;0.00;0.00;;;12.30;99.90;;;;;;5048425;28;20479;-84
2023/05/11 01:52:26;;;;;;;0.00;0.00;;;12.30;99.90;;;;;;5040248;28;20445;-83
2023/05/11 01:54:54;;;;;;;0.10;0.10;;;12.20;99.90;;;;;;5033777;28;21063;-83
2023/05/11 01:57:21;;;;;;;0.10;0.10;;;12.10;99.90;;;;;;5033677;28;20532;-83
2023/05/11 01:59:49;;;;;;;0.10;0.10;;;12.10;99.90;;;;;;5032794;28;21421;-83
2023/05/11 02:02:17;;;;;;;0.10;0.10;;;12.10;99.90;;;;;;5049374;28;20429;-83
2023/05/11 02:04:43;;;;;;;0.03;0.03;;;12.20;99.90;;;;;;5046946;28;20457;-84
2023/05/11 02:07:12;;;;;;;0.07;0.07;;;12.20;99.90;;;;;;5051840;28;20528;-84
2023/05/11 02:09:39;;;;;;;0.10;0.10;;;12.20;99.90;;;;;;5043345;28;20552;-84
2023/05/11 02:12:06;;;;;;;0.07;0.07;;;12.30;99.90;;;;;;5044910;28;20453;-83
2023/05/11 02:14:33;;;;;;;0.10;0.10;;;12.30;99.90;;;;;;5032349;28;20492;-84
2023/05/11 02:17:01;;;;;;;0.00;0.00;;;12.20;99.90;;;;;;5035645;28;20449;-84
2023/05/11 02:19:29;;;;;;;0.10;0.10;;;12.20;99.90;;;;;;5034140;28;20480;-84
2023/05/11 02:21:57;;;;;;;0.10;0.10;;;;;;;;;;5044746;28;20456;-84
2023/05/11 02:24:24;;;;;;;0.00;0.00;;;;;;;;;;5046711;28;20537;-84
2023/05/11 02:26:52;;;;;;;0.10;0.10;;;;;;;;;;5043034;28;20440;-84
2023/05/11 02:29:18;;;;;;;0.00;0.00;;;;;;;;;;5051514;28;20405;-83
2023/05/11 02:31:47;;;;;;;0.07;0.07;;;12.30;99.90;;;;;;5038295;28;20537;-83
2023/05/11 02:34:19;;;;;;;0.00;0.00;;;;;;;;;;5041760;28;20444;-83
2023/05/11 02:36:47;;;;;;;0.10;0.10;;;12.10;99.90;;;;;;5048665;28;20480;-84
2023/05/11 02:39:17;;;;;;;0.10;0.10;;;;;;;;;;5042509;28;20485;-83
2023/05/11 02:41:44;;;;;;;0.00;0.00;;;;;;;;;;5047583;28;20421;-84
2023/05/11 02:44:20;;;;;;;0.10;0.10;;;;;;;;;;5048784;28;20484;-84
2023/05/11 02:46:54;;;;;;;0.00;0.00;;;;;;;;;;5045775;28;21187;-84
2023/05/11 02:49:29;;;;;;;0.10;0.10;;;12.30;99.90;;;;;;5051211;28;20417;-83
2023/05/11 02:51:56;;;;;;;0.00;0.00;;;11.90;99.90;;;;;;5050060;28;20476;-84
2023/05/11 02:54:23;;;;;;;0.00;0.00;;;12.00;99.90;;;;;;5036519;28;20549;-84
2023/05/11 02:56:50;;;;;;;0.10;0.10;;;12.00;99.90;;;;;;5041812;28;20441;-83
2023/05/11 02:59:15;;;;;;;0.10;0.10;;;12.00;99.90;;;;;;5040251;28;20481;-84
2023/05/11 03:01:41;;;;;;;0.10;0.10;;;12.00;99.90;;;;;;5030617;28;20454;-83
2023/05/11 03:04:07;;;;;;;0.10;0.10;;;12.00;99.90;;;;;;5035052;28;20547;-83
2023/05/11 03:06:33;;;;;;;0.10;0.10;;;12.00;99.90;;;;;;5052041;28;20957;-84
2023/05/11 03:09:00;;;;;;;0.07;0.07;;;12.10;99.90;;;;;;5045651;28;20203;-83
2023/05/11 03:11:25;;;;;;;0.10;0.10;;;12.00;99.90;;;;;;5034906;28;20187;-84
2023/05/11 03:13:52;;;;;;;0.10;0.10;;;12.00;99.90;;;;;;5050329;28;20560;-83
2023/05/11 03:16:18;;;;;;;0.10;0.10;;;12.00;99.90;;;;;;5048170;28;20187;-83
2023/05/11 03:18:44;;;;;;;0.03;0.03;;;12.00;99.90;;;;;;5048518;28;20500;-84
2023/05/11 03:21:11;;;;;;;0.10;0.10;;;11.90;99.90;;;;;;5036690;28;20472;-83
2023/05/11 03:23:38;;;;;;;0.07;0.07;;;11.90;99.90;;;;;;5051385;28;20456;-83
2023/05/11 03:26:05;;;;;;;0.10;0.10;;;11.90;99.90;;;;;;5040271;28;20453;-84
2023/05/11 03:28:31;;;;;;;0.10;0.10;;;11.90;99.90;;;;;;5046175;28;20507;-83
2023/05/11 03:30:57;;;;;;;0.10;0.10;;;;;;;;;;5039823;28;20456;-83
2023/05/11 03:33:26;;;;;;;0.03;0.03;;;;;;;;;;5033102;28;20813;-82
2023/05/11 03:35:57;;;;;;;0.07;0.07;;;;;;;;;;5043918;28;20471;-83
2023/05/11 03:38:23;;;;;;;0.10;0.10;;;;;;;;;;5050060;28;20467;-83
2023/05/11 03:40:51;;;;;;;0.10;0.10;;;;;;;;;;5044103;28;20515;-83
2023/05/11 03:43:18;;;;;;;0.10;0.10;;;;;;;;;;5029927;28;20572;-83
2023/05/11 03:45:46;;;;;;;0.00;0.00;;;;;;;;;;5035390;28;20453;-83
2023/05/11 03:48:16;;;;;;;0.10;0.10;;;;;;;;;;5050906;28;20453;-83
2023/05/11 03:50:45;;;;;;;0.03;0.03;;;;;;;;;;5030865;28;20878;-83
2023/05/11 03:53:11;;;;;;;0.10;0.10;;;;;;;;;;5029802;28;20464;-83
2023/05/11 03:55:37;;;;;;;0.10;0.10;;;;;;;;;;5048245;28;21236;-83
2023/05/11 03:58:10;;;;;;;0.07;0.07;;;;;;;;;;5048363;28;20444;-83
2023/05/11 04:00:39;;;;;;;0.03;0.03;;;;;;;;;;5034270;28;20465;-83
2023/05/11 04:03:06;;;;;;;0.10;0.10;;;;;;;;;;5045341;28;20438;-84
2023/05/11 04:05:39;;;;;;;0.10;0.10;;;11.90;99.90;;;;;;5035305;28;20450;-84
2023/05/11 04:08:05;;;;;;;0.10;0.10;;;;;;;;;;5051104;28;20421;-84
2023/05/11 04:10:31;;;;;;;0.07;0.07;;;;;;;;;;5038677;28;21156;-84
2023/05/11 04:12:57;;;;;;;0.03;0.03;;;;;;;;;;5043948;28;20476;-83
2023/05/11 04:15:23;;;;;;;0.10;0.10;;;;;;;;;;5037559;28;21370;-83
2023/05/11 04:17:49;;;;;;;0.10;0.10;;;;;;;;;;5043166;28;20442;-83
2023/05/11 04:20:15;;;;;;;0.10;0.10;;;;;;;;;;5032099;28;20489;-83
2023/05/11 04:22:41;;;;;;;0.00;0.00;;;;;;;;;;5048442;28;20444;-84
2023/05/11 04:25:07;;;;;;;0.00;0.00;;;;;;;;;;5034981;28;20451;-83
2023/05/11 04:27:33;;;;;;;0.10;0.10;;;;;;;;;;5048659;28;20444;-83
2023/05/11 04:29:59;;;;;;;0.10;0.10;;;;;;;;;;5046452;28;20796;-83
2023/05/11 04:32:25;;;;;;;0.10;0.10;;;;;;;;;;5028661;28;20448;-83
2023/05/11 04:34:51;;;;;;;0.00;0.00;;;;;;;;;;5033529;28;20532;-83
2023/05/11 04:37:17;;;;;;;0.00;0.00;;;;;;;;;;5044584;28;20469;-83
2023/05/11 04:39:43;;;;;;;0.03;0.03;;;;;;;;;;5043531;28;20505;-83
2023/05/11 04:42:09;;;;;;;0.10;0.10;;;;;;;;;;5036776;28;20472;-83
2023/05/11 04:44:35;;;;;;;0.10;0.10;;;;;;;;;;5035076;28;20512;-83
2023/05/11 04:47:01;;;;;;;0.10;0.10;;;;;;;;;;5027595;28;20469;-83
2023/05/11 04:49:27;;;;;;;0.07;0.07;;;;;;;;;;5033067;28;20445;-83
2023/05/11 04:51:53;;;;;;;0.10;0.10;;;;;;;;;;5041810;28;20944;-83
2023/05/11 04:54:19;;;;;;;0.03;0.03;;;;;;;;;;5031539;28;20461;-83
2023/05/11 04:56:47;;;;;;;0.07;0.07;;;12.30;99.90;;;;;;5044673;28;20476;-83
2023/05/11 04:59:14;;;;;;;0.00;0.00;;;12.20;99.90;;;;;;5046694;28;20472;-84
2023/05/11 05:01:42;;;;;;;0.00;0.00;;;12.20;99.90;;;;;;5029827;28;20974;-83
2023/05/11 05:04:10;;;;;;;0.00;0.00;;;12.20;99.90;;;;;;5036637;28;20487;-83
2023/05/11 05:06:38;;;;;;;0.03;0.03;;;12.20;99.90;;;;;;5052102;28;20976;-82
2023/05/11 05:09:05;;;;;;;0.10;0.10;;;12.20;99.90;;;;;;5052688;28;20444;-82
2023/05/11 05:11:31;;;;;;;0.10;0.10;;;;;;;;;;5056001;28;20449;-82
2023/05/11 05:13:57;;;;;;;0.07;0.07;;;;;;;;;;5045065;28;20910;-82
2023/05/11 05:16:23;;;;;;;0.10;0.10;;;12.30;99.90;;;;;;5051204;28;20464;-82
2023/05/11 05:18:50;;;;;;;0.07;0.07;;;12.20;99.90;;;;;;5051101;28;20302;-82
2023/05/11 05:21:18;;;;;;;0.00;0.00;;;12.20;99.90;;;;;;5048608;28;20248;-82
2023/05/11 05:23:44;;;;;;;0.00;0.00;;;12.20;99.90;;;;;;5051204;28;20449;-83
2023/05/11 05:26:10;;;;;;;0.00;0.00;;;12.20;99.90;;;;;;5049507;28;20487;-82
2023/05/11 05:28:36;;;;;;;0.00;0.00;;;;;;;;;;5038314;28;20183;-84
2023/05/11 05:31:04;;;;;;;0.00;0.00;;;12.40;99.90;;;;;;5048183;28;20448;-84
2023/05/11 05:33:30;;;;;;;0.00;0.00;;;;;;;;;;5040496;28;20454;-83
2023/05/11 05:35:56;;;;;;;0.03;0.03;;;;;;;;;;5046542;28;20455;-83
2023/05/11 05:38:21;;;;;;;0.00;0.00;;;12.20;99.90;;;;;;5051838;28;20433;-83
2023/05/11 05:40:47;;;;;;;0.03;0.03;;;12.30;99.90;;;;;;5053614;28;20485;-82
2023/05/11 05:43:13;;;;;;;0.00;0.00;;;;;;;;;;5042841;28;20234;-82
2023/05/11 05:45:38;;;;;;;0.03;0.03;;;12.30;99.90;;;;;;5055334;28;20703;-82
2023/05/11 05:48:05;;;;;;;0.00;0.00;;;;;;;;;;5057026;28;20182;-82
2023/05/11 05:50:31;;;;;;;0.10;0.10;;;;;;;;;;5053273;28;20188;-85
2023/05/11 05:52:57;;;;;;;0.03;0.03;;;;;;;;;;5048612;28;20495;-83
2023/05/11 05:55:24;;;;;;;0.10;0.10;;;12.50;99.90;;;;;;5050297;28;20461;-82
2023/05/11 05:57:50;;;;;;;0.10;0.10;;;;;;;;;;5055506;28;20495;-83
2023/05/11 06:00:16;;;;;;;0.00;0.00;;;;;;;;;;5044014;28;20523;-83
2023/05/11 06:02:42;;;;;;;0.10;0.10;;;;;;;;;;5061981;28;20436;-83
2023/05/11 06:05:08;;;;;;;0.00;0.00;;;12.60;99.90;;;;;;5039397;28;20452;-83
2023/05/11 06:07:34;;;;;;;0.07;0.07;;;;;;;;;;5046724;28;20436;-83
2023/05/11 06:10:00;;;;;;;0.00;0.00;;;12.70;99.90;;;;;;5037608;28;20793;-83
2023/05/11 06:12:25;;;;;;;0.00;0.00;;;12.90;99.90;;;;;;5049960;28;20483;-82
2023/05/11 06:14:51;;;;;;;0.00;0.00;;;13.00;99.90;;;;;;5046365;28;20548;-83
2023/05/11 06:17:16;;;;;;;0.00;0.00;;;12.90;99.90;;;;;;5043195;28;20186;-82
2023/05/11 06:19:42;;;;;;;0.10;0.10;;;13.10;99.90;;;;;;5040978;28;20297;-82
2023/05/11 06:22:07;;;;;;;0.00;0.00;;;13.10;99.90;;;;;;5048631;28;20186;-83
2023/05/11 06:24:33;;;;;;;0.03;0.03;;;13.30;99.90;;;;;;5037208;28;20189;-84
2023/05/11 06:26:58;;;;;;;0.00;0.00;;;13.40;99.90;;;;;;5038944;28;20277;-85
2023/05/11 06:29:24;;;;;;;0.00;0.00;;;13.50;99.90;;;;;;5045753;28;20550;-87
2023/05/11 06:31:51;;;;;;;0.00;0.00;;;13.30;99.90;;;;;;5042168;28;20920;-87
2023/05/11 06:34:18;;;;;;;0.00;0.00;;;13.40;99.90;;;;;;5044689;28;20197;-86
2023/05/11 06:36:44;;;;;;;0.00;0.00;;;13.40;99.90;;;;;;5042739;28;20496;-83
2023/05/11 06:39:10;;;;;;;0.00;0.00;;;13.40;99.90;;;;;;5039055;28;21027;-84
2023/05/11 06:41:35;;;;;;;0.00;0.00;;;13.50;99.90;;;;;;5049328;28;20268;-84
2023/05/11 06:44:01;;;;;;;0.00;0.00;;;13.40;99.90;;;;;;5049297;28;20321;-85
2023/05/11 06:46:26;;;;;;;0.03;0.03;;;13.60;99.90;;;;;;5049864;28;20190;-84
2023/05/11 06:48:52;;;;;;;0.00;0.00;;;13.50;99.90;;;;;;5046666;28;20182;-86
2023/05/11 06:51:19;;;;;;;0.00;0.00;;;13.60;99.90;;;;;;5047051;28;20193;-86
2023/05/11 06:53:45;;;;;;;0.00;0.00;;;13.50;99.90;;;;;;5039554;28;20228;-85
2023/05/11 06:56:11;;;;;;;0.00;0.00;;;13.60;99.90;;;;;;5036429;28;20449;-85
2023/05/11 06:58:36;;;;;;;0.00;0.00;;;13.60;99.90;;;;;;5042290;28;20183;-85
2023/05/11 07:01:04;;;;;;;0.00;0.00;;;13.50;99.90;;;;;;5040571;28;20187;-85
2023/05/11 07:03:30;;;;;;;0.00;0.00;;;13.50;99.90;;;;;;5035626;28;20176;-85
2023/05/11 07:05:55;;;;;;;0.00;0.00;;;13.50;99.90;;;;;;5034498;28;20862;-85
2023/05/11 07:08:21;;;;;;;0.00;0.00;;;13.50;99.90;;;;;;5038078;28;20659;-86
2023/05/11 07:10:46;;;;;;;0.00;0.00;;;13.40;99.90;;;;;;5041048;28;20187;-85
2023/05/11 07:13:13;;;;;;;0.00;0.00;;;13.30;99.90;;;;;;5038867;28;20217;-85
2023/05/11 07:15:38;;;;;;;0.00;0.00;;;13.50;99.90;;;;;;5046359;28;20178;-85
2023/05/11 07:18:04;;;;;;;0.03;0.03;;;13.20;99.90;;;;;;5035690;28;20446;-83
2023/05/11 07:20:29;;;;;;;0.00;0.00;;;13.20;99.90;;;;;;5037271;28;20722;-83
2023/05/11 07:22:58;;;;;;;0.00;0.00;;;13.20;99.90;;;;;;5041479;28;20557;-83
2023/05/11 07:25:24;;;;;;;0.00;0.00;;;13.20;99.90;;;;;;5038065;28;20248;-82
2023/05/11 07:27:49;;;;;;;0.03;0.03;;;13.20;99.90;;;;;;5044889;28;20447;-83
2023/05/11 07:30:15;;;;;;;0.00;0.00;;;13.20;99.90;;;;;;5043895;28;20477;-82
2023/05/11 07:32:41;;;;;;;0.00;0.00;;;13.10;99.90;;;;;;5044636;28;20616;-83
2023/05/11 07:35:07;;;;;;;0.00;0.00;;;13.10;99.90;;;;;;5038640;28;20256;-85
2023/05/11 07:37:33;;;;;;;0.00;0.00;;;13.30;99.90;;;;;;5033133;28;20187;-85
2023/05/11 07:39:59;;;;;;;0.00;0.00;;;13.20;99.90;;;;;;5048959;28;20222;-85
2023/05/11 07:42:25;;;;;;;0.07;0.07;;;13.20;99.90;;;;;;5039793;28;20472;-84
2023/05/11 07:44:50;;;;;;;0.00;0.00;;;13.10;99.90;;;;;;5047257;28;20465;-81
2023/05/11 07:47:17;;;;;;;0.10;0.10;;;13.10;99.90;;;;;;5043576;28;20187;-82
2023/05/11 07:49:43;;;;;;;0.00;0.00;;;13.10;99.90;;;;;;5041551;28;20183;-82
2023/05/11 07:52:09;;;;;;;0.00;0.00;;;13.20;99.90;;;;;;5041915;28;20445;-81
2023/05/11 07:54:34;;;;;;;0.00;0.00;;;13.10;99.90;;;;;;5044439;28;20305;-82
2023/05/11 07:57:00;;;;;;;0.07;0.07;;;13.10;99.90;;;;;;5043580;28;20188;-81
2023/05/11 07:59:25;;;;;;;0.00;0.00;;;13.10;99.90;;;;;;5046409;28;20214;-81
2023/05/11 08:01:51;;;;;;;0.00;0.00;;;13.20;99.90;;;;;;5049079;28;20198;-81
2023/05/11 08:04:16;;;;;;;0.00;0.00;;;13.20;99.90;;;;;;5050692;28;20183;-82
2023/05/11 08:06:42;;;;;;;0.00;0.00;;;13.10;99.90;;;;;;5050727;28;20552;-83
2023/05/11 08:09:07;;;;;;;0.00;0.00;;;13.30;99.90;;;;;;5044720;28;20722;-80
2023/05/11 08:11:33;;;;;;;0.00;0.00;;;13.40;99.90;;;;;;5048189;28;20268;-81
2023/05/11 08:13:58;;;;;;;0.00;0.00;;;13.30;99.90;;;;;;5048222;28;20194;-81
2023/05/11 08:16:24;;;;;;;0.00;0.00;;;13.50;99.90;;;;;;5040725;28;20647;-81
2023/05/11 08:18:49;;;;;;;0.00;0.00;;;13.40;99.90;;;;;;5033137;28;20194;-81
2023/05/11 08:21:16;;;;;;;0.00;0.00;;;13.40;99.90;;;;;;5035026;28;20249;-81
2023/05/11 08:23:42;;;;;;;0.00;0.00;;;13.40;99.90;;;;;;5045559;28;20183;-81
2023/05/11 08:26:07;;;;;;;0.00;0.00;;;13.40;99.90;;;;;;5048983;28;20828;-82
2023/05/11 08:28:33;;;;;;;0.00;0.00;;;13.50;99.90;;;;;;5049348;28;20178;-83
2023/05/11 08:30:59;;;;;;;0.00;0.00;;;13.50;99.90;;;;;;5044014;28;20180;-83
2023/05/11 08:33:26;;;;;;;0.00;0.00;;;13.50;99.90;;;;;;5043519;28;20202;-83
2023/05/11 08:35:51;;;;;;;0.00;0.00;;;13.60;99.90;;;;;;5049983;28;20445;-83
2023/05/11 08:38:18;;;;;;;0.00;0.00;;;13.60;99.90;;;;;;5050602;28;20447;-83
2023/05/11 08:40:46;;;;;;;0.00;0.00;;;13.60;99.90;;;;;;5044047;28;20233;-81
2023/05/11 08:43:16;;;;;;;0.00;0.00;;;13.50;99.90;;;;;;5039353;28;20972;-81
2023/05/11 08:45:46;;;;;;;0.00;0.00;;;13.40;99.90;;;;;;5046771;28;20518;-80
2023/05/11 08:48:14;;;;;;;0.00;0.00;;;13.50;99.90;;;;;;5046868;28;20461;-81
2023/05/11 08:50:40;;;;;;;0.00;0.00;;;13.50;99.90;;;;;;5046421;28;20441;-81
2023/05/11 08:53:06;;;;;;;0.00;0.00;;;13.60;99.90;;;;;;5039398;28;20862;-80
2023/05/11 08:55:33;;;;;;;0.00;0.00;;;13.50;99.90;;;;;;5050538;28;20449;-82
2023/05/11 08:58:01;;;;;;;0.00;0.00;;;13.60;99.90;;;;;;5032197;28;20452;-83
2023/05/11 09:00:29;;;;;;;0.00;0.00;;;13.50;99.90;;;;;;5043770;28;20582;-83
2023/05/11 09:02:56;;;;;;;0.00;0.00;;;13.60;99.90;;;;;;5032035;28;20442;-83
2023/05/11 09:05:23;;;;;;;0.00;0.00;;;13.60;99.90;;;;;;5045849;28;20459;-83
2023/05/11 09:07:52;;;;;;;0.00;0.00;;;13.70;99.90;;;;;;5040343;28;20436;-80
2023/05/11 09:10:18;;;;;;;0.00;0.00;;;13.60;99.90;;;;;;5037091;28;20444;-80
2023/05/11 09:12:43;;;;;;;0.00;0.00;;;13.40;99.90;;;;;;5043548;28;20440;-80
2023/05/11 09:15:10;;;;;;;0.03;0.03;;;13.60;99.90;;;;;;5033351;28;20445;-81
2023/05/11 09:17:35;;;;;;;0.00;0.00;;;13.50;99.90;;;;;;5042016;28;20178;-82
2023/05/11 09:20:08;;;;;;;0.00;0.00;;;13.50;99.90;;;;;;5033255;28;20493;-82
2023/05/11 09:22:39;;;;;;;0.00;0.00;;;13.40;99.90;;;;;;5031588;28;20279;-82
2023/05/11 09:25:05;;;;;;;0.00;0.00;;;13.40;99.90;;;;;;5030011;28;20954;-81
2023/05/11 09:27:31;;;;;;;0.00;0.00;;;13.20;99.90;;;;;;5031685;28;20444;-81
2023/05/11 09:30:18;;;;;;;0.00;0.00;;;13.20;99.90;;;;;;5030733;28;20614;-80
2023/05/11 09:32:50;;;;;;;0.00;0.00;;;13.10;99.90;;;;;;5028774;28;20537;-79
2023/05/11 09:35:27;;;;;;;0.00;0.00;;;13.20;99.90;;;;;;5034430;28;20532;-79
2023/05/11 09:38:00;;;;;;;0.00;0.00;;;13.30;99.90;;;;;;5029347;28;20442;-79
2023/05/11 09:40:26;;;;;;;0.00;0.00;;;13.30;99.90;;;;;;5039638;28;20487;-80
2023/05/11 09:42:53;;;;;;;0.07;0.07;;;13.40;99.90;;;;;;5044269;28;20469;-80
2023/05/11 09:45:37;;;;;;;0.00;0.00;;;13.30;99.90;;;;;;5029691;28;20449;-82
2023/05/11 09:48:04;;;;;;;0.03;0.03;;;13.40;99.90;;;;;;5034619;28;20449;-81
2023/05/11 09:50:34;;;;;;;0.00;0.00;;;13.40;99.90;;;;;;5041317;28;20445;-81
2023/05/11 09:53:00;;;;;;;0.00;0.00;;;13.30;99.90;;;;;;5049805;28;20456;-82
2023/05/11 09:55:26;;;;;;;0.00;0.00;;;13.60;99.90;;;;;;5045080;28;20455;-81
2023/05/11 09:57:54;;;;;;;0.00;0.00;;;13.50;99.90;;;;;;5045446;28;20195;-81
2023/05/11 10:00:20;;;;;;;0.03;0.03;;;13.70;99.90;;;;;;5046722;28;20218;-81
2023/05/11 10:02:57;;;;;;;0.00;0.00;;;13.50;99.90;;;;;;5039324;28;20433;-82
2023/05/11 10:05:22;;;;;;;0.00;0.00;;;13.50;99.90;;;;;;5042996;28;20615;-81
2023/05/11 10:07:59;;;;;;;0.00;0.00;;;13.50;99.90;;;;;;5048284;28;20441;-81
2023/05/11 10:10:29;;;;;;;0.00;0.00;;;13.40;99.90;;;;;;5047067;28;20659;-81
2023/05/11 10:12:57;;;;;;;0.00;0.00;;;13.50;99.90;;;;;;5052021;28;21037;-81
2023/05/11 10:15:27;;;;;;;0.00;0.00;;;13.40;99.90;;;;;;5043157;28;21221;-81
2023/05/11 10:17:57;;;;;;;0.00;0.00;;;13.40;99.90;;;;;;5042597;28;20494;-82
2023/05/11 10:20:26;;;;;;;0.00;0.00;;;13.40;99.90;;;;;;5040178;28;20568;-82
2023/05/11 10:22:54;;;;;;;0.00;0.00;;;;;;;;;;5050150;28;20445;-82
2023/05/11 10:25:23;;;;;;;0.00;0.00;;;13.40;99.90;;;;;;5050636;28;20445;-82
2023/05/11 10:27:50;;;;;;;0.00;0.00;;;13.40;99.90;;;;;;5047534;28;20452;-82
2023/05/11 10:30:16;;;;;;;0.00;0.00;;;13.40;99.90;;;;;;5038908;28;20437;-83
2023/05/11 10:32:45;;;;;;;0.00;0.00;;;13.50;99.90;;;;;;5038733;28;20446;-82
2023/05/11 10:35:11;;;;;;;0.00;0.00;;;13.70;99.90;;;;;;5048613;28;20468;-82
2023/05/11 10:37:37;;;;;;;0.00;0.00;;;13.70;99.90;;;;;;5043750;28;20492;-82
2023/05/11 10:40:04;;;;;;;0.00;0.00;;;13.70;99.90;;;;;;5046672;28;20685;-81
2023/05/11 10:42:37;;;;;;;0.00;0.00;;;13.70;99.90;;;;;;5037482;28;20480;-81
2023/05/11 10:45:06;;;;;;;0.00;0.00;;;13.70;99.90;;;;;;5037894;28;20445;-82
2023/05/11 10:48:01;;;;;;;0.00;0.00;;;13.50;99.90;;;;;;5033796;28;20591;-82
2023/05/11 10:51:05;;;;;;;0.00;0.00;;;13.80;99.90;;;;;;5039220;28;20954;-82
2023/05/11 10:53:40;;;;;;;0.00;0.00;;;13.60;99.90;;;;;;5031339;28;20449;-80
2023/05/11 10:56:29;;;;;;;0.00;0.00;;;13.60;99.90;;;;;;5038775;28;20447;-82
2023/05/11 10:59:04;;;;;;;0.00;0.00;;;13.70;99.90;;;;;;5037325;28;21868;-83
2023/05/11 11:01:40;;;;;;;0.00;0.00;;;13.70;99.90;;;;;;5046620;28;20445;-83
2023/05/11 11:04:08;;;;;;;0.00;0.00;;;13.80;99.90;;;;;;5047458;28;20436;-83
2023/05/11 11:06:39;;;;;;;0.00;0.00;;;13.90;99.90;;;;;;5041145;28;20457;-83
2023/05/11 11:09:07;;;;;;;0.00;0.00;;;13.90;99.90;;;;;;5036552;28;20434;-83
2023/05/11 11:11:39;;;;;;;0.00;0.00;;;13.90;99.90;;;;;;5032242;28;20449;-83
2023/05/11 11:14:08;;;;;;;0.00;0.00;;;13.90;99.90;;;;;;5039183;28;20595;-83
2023/05/11 11:16:38;;;;;;;0.00;0.00;;;13.90;99.90;;;;;;5039200;28;20828;-82
2023/05/11 11:19:29;;;;;;;0.00;0.00;;;13.90;99.90;;;;;;5032481;28;20520;-83
2023/05/11 11:21:58;;;;;;;0.00;0.00;;;14.00;99.90;;;;;;5043062;28;20453;-83
2023/05/11 11:24:43;;;;;;;0.00;0.00;;;13.90;99.90;;;;;;5043582;28;20487;-83
2023/05/11 11:27:08;;;;;;;0.03;0.03;;;14.00;99.90;;;;;;5041610;28;21147;-83
2023/05/11 11:29:35;;;;;;;0.00;0.00;;;14.10;99.90;;;;;;5035955;28;20532;-83
2023/05/11 11:32:24;;;;;;;0.00;0.00;;;14.30;99.90;;;;;;5037469;28;20944;-83
2023/05/11 11:34:50;;;;;;;0.00;0.00;;;14.20;99.90;;;;;;5042074;28;20890;-83
2023/05/11 11:37:17;;;;;;;0.00;0.00;;;14.20;99.90;;;;;;5051423;28;20473;-83
2023/05/11 11:39:43;;;;;;;0.00;0.00;;;14.20;99.90;;;;;;5040562;28;20462;-84
2023/05/11 11:42:09;;;;;;;0.00;0.00;;;14.30;99.90;;;;;;5047562;28;20899;-83
2023/05/11 11:44:39;;;;;;;0.00;0.00;;;14.40;99.90;;;;;;5050793;28;20190;-83
2023/05/11 11:47:20;;;;;;;0.00;0.00;;;14.40;99.90;;;;;;5042188;28;20454;-83
2023/05/11 11:49:52;;;;;;;0.00;0.00;;;14.50;99.90;;;;;;5032836;28;20450;-83
2023/05/11 12:08:48;;;;;;;0.00;0.00;;;16.40;99.90;;;;;;5002118;28;20592;-81
2023/05/11 12:11:16;;;;;;;0.00;0.00;;;16.80;99.90;;;;;;4997338;28;20455;-84
2023/05/11 12:13:45;;;;;;;0.00;0.00;;;17.30;99.90;;;;;;4997265;28;20983;-83
2023/05/11 12:16:14;;;;;;;0.00;0.00;;;17.60;99.90;;;;;;4985808;28;20444;-83
2023/05/11 12:18:41;;;;;;;0.00;0.00;;;17.40;99.90;;;;;;5000682;28;20461;-83
2023/05/11 12:21:21;;;;;;;0.00;0.00;;;17.60;99.90;;;;;;4984306;28;20449;-82
2023/05/11 12:24:00;;;;;;;0.00;0.00;;;17.90;99.90;;;;;;5005273;28;20461;-84
2023/05/11 12:26:27;;;;;;;0.00;0.00;;;18.00;99.90;;;;;;4995980;28;20502;-83
2023/05/11 12:29:13;;;;;;;0.00;0.00;;;18.20;99.90;;;;;;4983847;28;20876;-85
2023/05/11 12:31:40;;;;;;;0.00;0.00;;;18.50;99.90;;;;;;4986189;28;20494;-84
2023/05/11 12:34:12;;;;;;;0.00;0.00;;;18.70;99.90;;;;;;4982793;28;20513;-82
2023/05/11 12:36:38;;;;;;;0.00;0.00;;;18.60;99.90;;;;;;4987876;28;20420;-83
2023/05/11 12:39:03;;;;;;;0.00;0.00;;;18.70;99.90;;;;;;4984483;28;21012;-83
2023/05/11 12:41:29;;;;;;;0.00;0.00;;;18.90;99.90;;;;;;5003906;28;20527;-83
2023/05/11 12:43:55;;;;;;;0.00;0.00;;;19.20;99.90;;;;;;4981576;28;20198;-83
2023/05/11 12:46:21;;;;;;;0.00;0.00;;;19.90;99.90;;;;;;4980194;28;20747;-83
2023/05/11 12:48:49;;;;;;;0.00;0.00;;;19.90;99.90;;;;;;4970590;28;20205;-81
2023/05/11 12:51:43;;;;;;;0.00;0.00;;;19.70;99.90;;;;;;4986760;28;21035;-83
2023/05/11 12:54:09;;;;;;;0.00;0.00;;;20.50;99.90;;;;;;4988275;28;20440;-80
2023/05/11 12:56:47;;;;;;;0.00;0.00;;;20.50;99.90;;;;;;4993036;28;20435;-80
2023/05/11 12:59:38;;;;;;;0.00;0.00;;;21.10;99.90;;;;;;5005586;28;20213;-79
2023/05/11 13:02:05;;;;;;;0.00;0.00;;;21.60;99.90;;;;;;4984395;28;21020;-80
2023/05/11 13:04:31;;;;;;;0.00;0.00;;;21.40;99.90;;;;;;4976494;28;20531;-80
2023/05/11 13:06:57;;;;;;;0.00;0.00;;;21.60;99.90;;;;;;4977842;28;20498;-80
2023/05/11 13:09:26;;;;;;;0.00;0.00;;;21.30;99.90;;;;;;4967215;28;20833;-80
2023/05/11 13:12:16;;;;;;;0.00;0.00;;;21.30;99.90;;;;;;4995350;28;20603;-79
2023/05/11 13:14:42;;;;;;;0.00;0.00;;;21.10;99.90;;;;;;4972865;28;20531;-82
2023/05/11 13:17:09;;;;;;;0.00;0.00;;;21.50;99.90;;;;;;4984927;28;20448;-80
2023/05/11 13:19:36;;;;;;;0.00;0.00;;;21.50;99.90;;;;;;4981576;28;21051;-80
2023/05/11 13:22:02;;;;;;;0.00;0.00;;;21.70;99.90;;;;;;4965086;28;20448;-80
2023/05/11 13:24:28;;;;;;;0.00;0.00;;;21.30;99.90;;;;;;4962184;28;20829;-79
2023/05/11 13:26:56;;;;;;;0.00;0.00;;;20.90;99.90;;;;;;4957929;28;20472;-79